Bay City, TX (77414)

3:43 AM CDT on October 23, 2014 (GMT -0500)
Selkirk Island | Change Station
CLOSE
Current Station
Personal Weather Station
Location: Bay City, TX
Elevation: 43 ft
Nearby Weather Stations

Elev 43 ft 28.77 °N, 95.99 °W | Updated 10 minutes ago

Clear
Clear
59.7 °F
Feels Like 59.7 °F
N
0.0
Wind Variable Wind from West

Today
High -- | Low -- °F
--% Chance of Precip.
Yesterday
High -- | Low -- °F
Precip. -- in
7:30 AM 6:45 PM
Waning Crescent, 0% visible
Pressure 30.06 in
Visibility 5.0 miles
Clouds Clear
Dew Point 57 °F
Humidity 90%
Rainfall 0.00 in
Snow Depth Not available.
UV 0 out of 12
Pollen 6.00 out of 12
Air Quality Not available.
Flu Activity Sporadic
METAR KLBX 230753Z AUTO 01004KT 5SM BR CLR 14/14 A3006 RMK AO2 SLP180 T01390139 $

More Conditions Fewer Conditions

Pressure 30.06 in
Visibility 5.0 miles
Clouds Clear
Dew Point 57 °F
Humidity 90%
Rainfall 0.00 in
Snow Depth Not available.
UV 0 out of 12
Pollen 6.00 out of 12
Air Quality Not available.
Flu Activity Sporadic
METAR KLBX 230753Z AUTO 01004KT 5SM BR CLR 14/14 A3006 RMK AO2 SLP180 T01390139 $

More Conditions Fewer Conditions

10-Day Weather Forecast

Almanac

Astronomy

Oct. 23, 2014 Rise Set
Actual Time 7:30 AM CDT 6:45 PM CDT
Civil Twilight 7:06 AM CDT 7:09 PM CDT
Nautical Twilight 6:38 AM CDT 7:37 PM CDT
Astronomical Twilight 6:10 AM CDT 8:05 PM CDT
Moon 7:12 AM CDT 6:48 PM CDT
Length of Visible Light 12h 03m
Length of Day
11h 15m
Tomorrow will be 1m 35s shorter.
Waning Crescent, 0% of the Moon is Illuminated
Today
Waning Crescent
Oct 23
New
Oct 30
First Quarter
Nov 6
Full
Nov 14
Last Quarter

Today's Extremes

State Highs State Lows

Community

WunderPhotos

Upload Photos

1,764,197 photos uploaded!

Nearby

Snow Depth

Station Depth Elevation
No new snow has been reported.

Earthquake Activity

City Distance Mag. Time & Date
No recent earthquake activity has been reported nearby.
Minimum magnitude displayed is 2.5.

Coastal Water Temperatures

Place Temperature
Seadrift, TX 77.0 °F
Rockport, TX 77.0 °F
USCG Freeport, TX 75.9 °F

Nearby Weather Stations